createdAt,value
2023-01-20T00:00:12.192Z,970.76
2023-01-20T00:01:12.186Z,970.78
2023-01-20T00:02:12.172Z,970.76
2023-01-20T00:03:12.147Z,970.75
2023-01-20T00:04:12.138Z,970.86
2023-01-20T00:05:12.475Z,970.85
2023-01-20T00:06:12.105Z,970.91
2023-01-20T00:07:12.079Z,970.96
2023-01-20T00:08:12.070Z,970.96
2023-01-20T00:09:12.061Z,970.88
2023-01-20T00:10:12.047Z,970.89
2023-01-20T00:11:12.033Z,970.94
2023-01-20T00:12:12.022Z,970.97
2023-01-20T00:13:12.004Z,971.01
2023-01-20T00:14:12.015Z,971.06
2023-01-20T00:15:12.358Z,971.08
2023-01-20T00:16:12.061Z,971.02
2023-01-20T00:17:11.952Z,971.13
2023-01-20T00:18:11.990Z,971.05
2023-01-20T00:19:11.928Z,971.07
2023-01-20T00:20:11.925Z,971.02
2023-01-20T00:21:11.941Z,971.16
2023-01-20T00:22:11.881Z,971.12
2023-01-20T00:23:11.874Z,971.13
2023-01-20T00:24:11.882Z,971.14
2023-01-20T00:25:12.398Z,971.08
2023-01-20T00:26:11.836Z,971.04
2023-01-20T00:27:11.818Z,971.11
2023-01-20T00:28:11.809Z,971.05
2023-01-20T00:29:11.795Z,971.13
2023-01-20T00:30:11.786Z,971.12
2023-01-20T00:31:11.832Z,971.16
2023-01-20T00:32:11.757Z,971.11
2023-01-20T00:33:11.739Z,971.11
2023-01-20T00:34:11.784Z,971.09
2023-01-20T00:35:11.965Z,971.11
2023-01-20T00:36:11.699Z,971.05
2023-01-20T00:37:11.687Z,971.05
2023-01-20T00:38:11.669Z,971.14
2023-01-20T00:39:11.682Z,971.16
2023-01-20T00:40:11.642Z,971.11
2023-01-20T00:41:11.642Z,971.19
2023-01-20T00:42:11.619Z,971.19
2023-01-20T00:43:11.609Z,971.18
2023-01-20T00:44:11.593Z,971.17
2023-01-20T00:45:11.859Z,971.06
2023-01-20T00:46:11.649Z,971.10
2023-01-20T00:47:11.554Z,971.12
2023-01-20T00:48:11.539Z,971.13
2023-01-20T00:49:11.524Z,971.19
2023-01-20T00:50:11.534Z,971.13
2023-01-20T00:51:11.504Z,971.21
2023-01-20T00:52:11.483Z,971.12
2023-01-20T00:53:11.477Z,971.19
2023-01-20T00:54:11.458Z,971.25
2023-01-20T00:55:11.920Z,971.19
2023-01-20T00:56:11.434Z,971.25
2023-01-20T00:57:11.416Z,971.21
2023-01-20T00:58:11.401Z,971.28
2023-01-20T00:59:11.393Z,971.33
2023-01-20T01:00:11.374Z,971.24
2023-01-20T01:01:11.500Z,971.29
2023-01-20T01:02:11.362Z,971.30
2023-01-20T01:03:11.335Z,971.32
2023-01-20T01:04:11.321Z,971.31
2023-01-20T01:05:11.558Z,971.38
2023-01-20T01:06:11.334Z,971.30
2023-01-20T01:07:11.295Z,971.33
2023-01-20T01:08:11.275Z,971.35
2023-01-20T01:09:11.268Z,971.43
2023-01-20T01:10:11.244Z,971.45
2023-01-20T01:11:11.232Z,971.43
2023-01-20T01:12:11.223Z,971.42
2023-01-20T01:13:11.237Z,971.48
2023-01-20T01:14:11.190Z,971.44
2023-01-20T01:15:11.438Z,971.47
2023-01-20T01:16:11.216Z,971.49
2023-01-20T01:17:11.155Z,971.48
2023-01-20T01:18:11.132Z,971.53
2023-01-20T01:19:11.128Z,971.55
2023-01-20T01:20:11.109Z,971.59
2023-01-20T01:21:11.116Z,971.58
2023-01-20T01:22:11.109Z,971.55
2023-01-20T01:23:11.083Z,971.55
2023-01-20T01:24:11.071Z,971.61
2023-01-20T01:25:11.547Z,971.61
2023-01-20T01:26:11.049Z,971.60
2023-01-20T01:27:11.020Z,971.54
2023-01-20T01:28:11.009Z,971.63
2023-01-20T01:29:10.997Z,971.65
2023-01-20T01:30:10.975Z,971.65
2023-01-20T01:31:11.024Z,971.70
2023-01-20T01:32:10.969Z,971.74
2023-01-20T01:33:10.940Z,971.77
2023-01-20T01:34:10.931Z,971.74
2023-01-20T01:35:10.913Z,971.77
2023-01-20T01:36:10.901Z,971.77
2023-01-20T01:37:10.885Z,971.77
2023-01-20T01:38:10.901Z,971.75
2023-01-20T01:39:10.859Z,971.75
2023-01-20T01:40:10.853Z,971.75
2023-01-20T01:41:10.834Z,971.76
2023-01-20T01:42:10.817Z,971.79
2023-01-20T01:43:10.802Z,971.82
2023-01-20T01:44:10.789Z,971.76
2023-01-20T01:45:11.131Z,971.79
2023-01-20T01:46:10.765Z,971.81
2023-01-20T01:47:10.755Z,971.78
2023-01-20T01:48:10.744Z,971.79
2023-01-20T01:49:10.732Z,971.79
2023-01-20T01:50:10.719Z,971.78
2023-01-20T01:51:10.708Z,971.73
2023-01-20T01:52:10.687Z,971.78
2023-01-20T01:53:10.668Z,971.77
2023-01-20T01:54:10.697Z,971.79
2023-01-20T01:55:10.720Z,971.73
2023-01-20T01:56:10.638Z,971.77
2023-01-20T01:57:10.621Z,971.76
2023-01-20T01:58:10.607Z,971.73
2023-01-20T01:59:10.595Z,971.72
2023-01-20T02:00:10.585Z,971.69
2023-01-20T02:01:10.668Z,971.73
2023-01-20T02:02:10.615Z,971.76
2023-01-20T02:03:10.536Z,971.75
2023-01-20T02:04:10.531Z,971.75
2023-01-20T02:05:10.509Z,971.74
2023-01-20T02:06:10.497Z,971.74
2023-01-20T02:07:10.493Z,971.78
2023-01-20T02:08:10.472Z,971.79
2023-01-20T02:09:10.460Z,971.78
2023-01-20T02:10:10.468Z,971.79
2023-01-20T02:11:10.447Z,971.81
2023-01-20T02:12:10.419Z,971.79
2023-01-20T02:13:10.407Z,971.85
2023-01-20T02:14:10.408Z,971.87
2023-01-20T02:15:10.381Z,971.82
2023-01-20T02:16:10.399Z,971.81
2023-01-20T02:17:10.348Z,971.83
2023-01-20T02:18:10.338Z,971.85
2023-01-20T02:19:10.324Z,971.84
2023-01-20T02:20:10.307Z,971.92
2023-01-20T02:21:10.298Z,971.95
2023-01-20T02:22:10.283Z,971.93
2023-01-20T02:23:10.269Z,971.94
2023-01-20T02:24:10.256Z,971.97
2023-01-20T02:25:10.251Z,971.93
2023-01-20T02:26:10.255Z,971.89
2023-01-20T02:27:10.222Z,971.92
2023-01-20T02:28:10.208Z,971.91
2023-01-20T02:29:10.188Z,971.92
2023-01-20T02:30:10.174Z,971.94
2023-01-20T02:31:10.168Z,971.93
2023-01-20T02:32:10.150Z,971.98
2023-01-20T02:33:10.147Z,971.94
2023-01-20T02:34:10.126Z,971.92
2023-01-20T02:35:10.115Z,972.05
2023-01-20T02:36:10.103Z,971.97
2023-01-20T02:37:10.084Z,971.96
2023-01-20T02:38:10.072Z,971.97
2023-01-20T02:39:10.055Z,971.94
2023-01-20T02:40:10.045Z,971.98
2023-01-20T02:41:10.043Z,971.99
2023-01-20T02:42:10.039Z,971.93
2023-01-20T02:43:10.009Z,971.95
2023-01-20T02:44:09.995Z,971.95
2023-01-20T02:45:09.979Z,971.98
2023-01-20T02:46:09.965Z,971.92
2023-01-20T02:47:09.953Z,972.00
2023-01-20T02:48:09.936Z,971.96
2023-01-20T02:49:09.929Z,971.92
2023-01-20T02:50:09.913Z,971.99
2023-01-20T02:51:09.907Z,971.99
2023-01-20T02:52:09.884Z,971.96
2023-01-20T02:53:09.873Z,972.01
2023-01-20T02:54:09.857Z,972.07
2023-01-20T02:55:09.854Z,972.09
2023-01-20T02:56:09.838Z,972.02
2023-01-20T02:57:09.834Z,972.01
2023-01-20T02:58:09.823Z,972.03
2023-01-20T02:59:09.801Z,972.06
2023-01-20T03:00:09.779Z,972.05
2023-01-20T03:01:09.836Z,972.13
2023-01-20T03:02:09.822Z,972.02
2023-01-20T03:03:09.749Z,972.13
2023-01-20T03:04:09.815Z,972.11
2023-01-20T03:05:09.718Z,972.14
2023-01-20T03:06:09.704Z,972.21
2023-01-20T03:07:09.686Z,972.19
2023-01-20T03:08:09.673Z,972.17
2023-01-20T03:09:09.659Z,972.14
2023-01-20T03:10:09.654Z,972.25
2023-01-20T03:11:09.639Z,972.21
2023-01-20T03:12:09.612Z,972.19
2023-01-20T03:13:09.608Z,972.26
2023-01-20T03:14:09.621Z,972.17
2023-01-20T03:15:09.580Z,972.21
2023-01-20T03:16:09.566Z,972.23
2023-01-20T03:17:09.556Z,972.25
2023-01-20T03:18:09.540Z,972.24
2023-01-20T03:19:09.531Z,972.26
2023-01-20T03:20:09.579Z,972.27
2023-01-20T03:21:09.509Z,972.26
2023-01-20T03:22:09.490Z,972.28
2023-01-20T03:23:09.488Z,972.26
2023-01-20T03:24:09.456Z,972.28
2023-01-20T03:25:09.463Z,972.25
2023-01-20T03:26:09.439Z,972.29
2023-01-20T03:27:09.420Z,972.28
2023-01-20T03:28:09.415Z,972.34
2023-01-20T03:29:09.414Z,972.31
2023-01-20T03:30:09.399Z,972.30
2023-01-20T03:31:09.518Z,972.34
2023-01-20T03:32:09.361Z,972.36
2023-01-20T03:33:09.339Z,972.32
2023-01-20T03:34:09.326Z,972.37
2023-01-20T03:35:09.311Z,972.36
2023-01-20T03:36:09.307Z,972.34
2023-01-20T03:37:09.295Z,972.36
2023-01-20T03:38:09.277Z,972.35
2023-01-20T03:39:09.265Z,972.44
2023-01-20T03:40:09.250Z,972.33
2023-01-20T03:41:09.243Z,972.42
2023-01-20T03:42:09.221Z,972.48
2023-01-20T03:43:09.214Z,972.44
2023-01-20T03:44:09.202Z,972.47
2023-01-20T03:45:09.178Z,972.47
2023-01-20T03:46:09.234Z,972.48
2023-01-20T03:47:09.157Z,972.57
2023-01-20T03:48:09.142Z,972.57
2023-01-20T03:49:09.128Z,972.52
2023-01-20T03:50:09.113Z,972.57
2023-01-20T03:51:09.102Z,972.59
2023-01-20T03:52:09.084Z,972.54
2023-01-20T03:53:09.076Z,972.60
2023-01-20T03:54:09.064Z,972.62
2023-01-20T03:55:09.051Z,972.67
2023-01-20T03:56:09.032Z,972.70
2023-01-20T03:57:09.033Z,972.70
2023-01-20T03:58:09.011Z,972.79
2023-01-20T03:59:08.996Z,972.64
2023-01-20T04:00:08.979Z,972.75
2023-01-20T04:01:17.941Z,972.71
2023-01-20T04:02:09.158Z,972.80
2023-01-20T04:03:09.041Z,972.76
2023-01-20T04:04:08.924Z,972.84
2023-01-20T04:05:08.919Z,972.80
2023-01-20T04:06:08.901Z,972.83
2023-01-20T04:07:08.888Z,972.72
2023-01-20T04:08:08.890Z,972.74
2023-01-20T04:09:08.872Z,972.85
2023-01-20T04:10:08.843Z,972.78
2023-01-20T04:11:08.830Z,972.82
2023-01-20T04:12:08.815Z,972.77
2023-01-20T04:13:08.811Z,972.81
2023-01-20T04:14:08.796Z,972.84
2023-01-20T04:15:08.780Z,972.84
2023-01-20T04:16:08.841Z,972.93
2023-01-20T04:17:08.760Z,972.87
2023-01-20T04:18:08.767Z,972.93
2023-01-20T04:19:08.729Z,972.87
2023-01-20T04:20:08.723Z,972.92
2023-01-20T04:21:08.703Z,972.92
2023-01-20T04:22:08.690Z,972.92
2023-01-20T04:23:08.680Z,972.90
2023-01-20T04:24:08.665Z,972.94
2023-01-20T04:25:08.642Z,972.91
2023-01-20T04:26:08.634Z,972.91
2023-01-20T04:27:08.615Z,972.93
2023-01-20T04:28:08.599Z,973.00
2023-01-20T04:29:11.236Z,973.04
2023-01-20T04:30:08.578Z,973.01
2023-01-20T04:31:15.459Z,973.02
2023-01-20T04:32:08.613Z,973.02
2023-01-20T04:33:08.543Z,973.01
2023-01-20T04:34:08.548Z,973.09
2023-01-20T04:35:08.517Z,973.06
2023-01-20T04:36:08.497Z,973.13
2023-01-20T04:37:08.483Z,973.10
2023-01-20T04:38:08.525Z,973.13
2023-01-20T04:39:08.458Z,973.11
2023-01-20T04:40:08.452Z,973.10
2023-01-20T04:41:08.429Z,973.06
2023-01-20T04:42:08.413Z,973.15
2023-01-20T04:43:08.397Z,973.12
2023-01-20T04:44:08.390Z,973.15
2023-01-20T04:45:08.370Z,973.19
2023-01-20T04:46:08.407Z,973.17
2023-01-20T04:47:08.359Z,973.19
2023-01-20T04:48:08.342Z,973.18
2023-01-20T04:49:08.333Z,973.13
2023-01-20T04:50:08.334Z,973.22
2023-01-20T04:51:08.291Z,973.19
2023-01-20T04:52:08.289Z,973.22
2023-01-20T04:53:08.618Z,973.27
2023-01-20T04:54:08.270Z,973.24
2023-01-20T04:55:08.244Z,973.24
2023-01-20T04:56:08.238Z,973.32
2023-01-20T04:57:08.214Z,973.32
2023-01-20T04:58:08.201Z,973.29
2023-01-20T04:59:08.183Z,973.29
2023-01-20T05:00:08.174Z,973.30
2023-01-20T05:01:08.174Z,973.34
2023-01-20T05:02:08.193Z,973.38
2023-01-20T05:03:08.225Z,973.35
2023-01-20T05:04:08.120Z,973.40
2023-01-20T05:05:08.108Z,973.42
2023-01-20T05:06:08.117Z,973.44
2023-01-20T05:07:08.080Z,973.47
2023-01-20T05:08:08.092Z,973.43
2023-01-20T05:09:08.052Z,973.47
2023-01-20T05:10:08.041Z,973.57
2023-01-20T05:11:08.048Z,973.51
2023-01-20T05:12:08.063Z,973.45
2023-01-20T05:13:08.006Z,973.46
2023-01-20T05:14:07.991Z,973.49
2023-01-20T05:15:07.979Z,973.53
2023-01-20T05:16:08.009Z,973.56
2023-01-20T05:17:07.952Z,973.53
2023-01-20T05:18:07.937Z,973.53
2023-01-20T05:19:07.927Z,973.58
2023-01-20T05:20:07.910Z,973.62
2023-01-20T05:21:07.902Z,973.63
2023-01-20T05:22:07.905Z,973.61
2023-01-20T05:23:07.868Z,973.58
2023-01-20T05:24:07.856Z,973.63
2023-01-20T05:25:07.846Z,973.64
2023-01-20T05:26:07.826Z,973.65
2023-01-20T05:27:07.813Z,973.67
2023-01-20T05:28:07.801Z,973.68
2023-01-20T05:29:07.788Z,973.67
2023-01-20T05:30:07.778Z,973.63
2023-01-20T05:31:07.900Z,973.67
2023-01-20T05:32:07.752Z,973.63
2023-01-20T05:33:07.737Z,973.69
2023-01-20T05:34:07.720Z,973.70
2023-01-20T05:35:07.710Z,973.70
2023-01-20T05:36:07.706Z,973.76
2023-01-20T05:37:07.674Z,973.71
2023-01-20T05:38:07.690Z,973.90
2023-01-20T05:39:07.666Z,973.77
2023-01-20T05:40:07.653Z,973.76
2023-01-20T05:41:07.643Z,973.84
2023-01-20T05:42:07.629Z,973.89
2023-01-20T05:43:07.610Z,973.85
2023-01-20T05:44:07.589Z,973.86
2023-01-20T05:45:07.578Z,973.96
2023-01-20T05:46:07.599Z,973.89
2023-01-20T05:47:07.545Z,973.94
2023-01-20T05:48:07.532Z,973.93
2023-01-20T05:49:07.517Z,973.91
2023-01-20T05:50:07.529Z,973.94
2023-01-20T05:51:07.497Z,973.91
2023-01-20T05:52:07.480Z,973.99
2023-01-20T05:53:07.470Z,973.92
2023-01-20T05:54:07.627Z,973.98
2023-01-20T05:55:07.458Z,974.03
2023-01-20T05:56:07.441Z,974.02
2023-01-20T05:57:07.418Z,974.03
2023-01-20T05:58:07.404Z,973.98
2023-01-20T05:59:07.390Z,974.00
2023-01-20T06:00:08.726Z,973.95
2023-01-20T06:01:07.459Z,973.98
2023-01-20T06:02:07.364Z,974.03
2023-01-20T06:03:07.328Z,974.02
2023-01-20T06:04:07.380Z,973.94
2023-01-20T06:05:07.310Z,974.05
2023-01-20T06:06:07.346Z,974.00
2023-01-20T06:07:07.279Z,973.97
2023-01-20T06:08:07.291Z,973.99
2023-01-20T06:09:07.259Z,973.99
2023-01-20T06:10:07.265Z,973.98
2023-01-20T06:11:07.229Z,974.08
2023-01-20T06:12:07.226Z,974.09
2023-01-20T06:13:07.199Z,974.11
2023-01-20T06:14:07.195Z,974.11
2023-01-20T06:15:07.179Z,974.06
2023-01-20T06:16:07.579Z,974.07
2023-01-20T06:17:07.156Z,974.10
2023-01-20T06:18:07.142Z,974.15
2023-01-20T06:19:07.127Z,974.07
2023-01-20T06:20:07.122Z,974.09
2023-01-20T06:21:07.117Z,974.06
2023-01-20T06:22:07.084Z,974.15
2023-01-20T06:23:07.078Z,974.10
2023-01-20T06:24:07.068Z,974.11
2023-01-20T06:25:07.053Z,974.16
2023-01-20T06:26:07.079Z,974.16
2023-01-20T06:27:07.031Z,974.18
2023-01-20T06:28:07.003Z,974.17
2023-01-20T06:29:06.984Z,974.19
2023-01-20T06:30:07.008Z,974.30
2023-01-20T06:31:07.168Z,974.27
2023-01-20T06:32:06.952Z,974.26
2023-01-20T06:33:06.941Z,974.24
2023-01-20T06:34:06.929Z,974.29
2023-01-20T06:35:06.913Z,974.32
2023-01-20T06:36:06.904Z,974.30
2023-01-20T06:37:06.891Z,974.30
2023-01-20T06:38:06.885Z,974.31
2023-01-20T06:39:06.858Z,974.29
2023-01-20T06:40:06.846Z,974.40
2023-01-20T06:41:06.829Z,974.34
2023-01-20T06:42:06.843Z,974.38
2023-01-20T06:43:06.807Z,974.42
2023-01-20T06:44:06.790Z,974.41
2023-01-20T06:45:06.776Z,974.45
2023-01-20T06:46:06.771Z,974.42
2023-01-20T06:47:06.752Z,974.45
2023-01-20T06:48:06.741Z,974.45
2023-01-20T06:49:06.728Z,974.48
2023-01-20T06:50:06.714Z,974.51
2023-01-20T06:51:06.707Z,974.46
2023-01-20T06:52:06.692Z,974.50
2023-01-20T06:53:06.669Z,974.54
2023-01-20T06:54:06.653Z,974.56
2023-01-20T06:55:06.646Z,974.59
2023-01-20T06:56:06.631Z,974.57
2023-01-20T06:57:06.629Z,974.63
2023-01-20T06:58:06.636Z,974.58
2023-01-20T06:59:06.602Z,974.60
2023-01-20T07:00:06.581Z,974.66
2023-01-20T07:01:06.709Z,974.70
2023-01-20T07:02:06.674Z,974.66
2023-01-20T07:03:06.546Z,974.74
2023-01-20T07:04:06.537Z,974.69
2023-01-20T07:05:06.508Z,974.67
2023-01-20T07:06:06.496Z,974.80
2023-01-20T07:07:06.480Z,974.71
2023-01-20T07:08:06.471Z,974.78
2023-01-20T07:09:06.462Z,974.74
2023-01-20T07:10:06.457Z,974.79
2023-01-20T07:11:06.429Z,974.79
2023-01-20T07:12:06.416Z,974.77
2023-01-20T07:13:06.407Z,974.83
2023-01-20T07:14:06.426Z,974.82
2023-01-20T07:15:06.383Z,974.84
2023-01-20T07:16:07.808Z,974.81
2023-01-20T07:17:06.352Z,974.88
2023-01-20T07:18:06.343Z,974.88
2023-01-20T07:19:06.321Z,974.93
2023-01-20T07:20:06.318Z,974.93
2023-01-20T07:21:06.298Z,974.94
2023-01-20T07:22:06.283Z,974.96
2023-01-20T07:23:06.272Z,974.95
2023-01-20T07:24:06.269Z,975.01
2023-01-20T07:25:06.245Z,975.02
2023-01-20T07:26:06.233Z,975.02
2023-01-20T07:27:06.216Z,975.05
2023-01-20T07:28:06.208Z,975.06
2023-01-20T07:29:06.188Z,975.13
2023-01-20T07:30:06.297Z,975.16
2023-01-20T07:31:06.166Z,975.24
2023-01-20T07:32:06.167Z,975.17
2023-01-20T07:33:06.148Z,975.19
2023-01-20T07:34:06.133Z,975.16
2023-01-20T07:35:06.122Z,975.22
2023-01-20T07:36:06.096Z,975.19
2023-01-20T07:37:06.096Z,975.22
2023-01-20T07:38:06.079Z,975.22
2023-01-20T07:39:06.061Z,975.22
2023-01-20T07:40:06.046Z,975.33
2023-01-20T07:41:06.037Z,975.30
2023-01-20T07:42:06.021Z,975.22
2023-01-20T07:43:06.006Z,975.24
2023-01-20T07:44:06.007Z,975.30
2023-01-20T07:45:06.004Z,975.24
2023-01-20T07:46:06.118Z,975.31
2023-01-20T07:47:05.953Z,975.33
2023-01-20T07:48:05.943Z,975.29
2023-01-20T07:49:05.924Z,975.39
2023-01-20T07:50:05.916Z,975.34
2023-01-20T07:51:05.955Z,975.39
2023-01-20T07:52:05.890Z,975.40
2023-01-20T07:53:05.882Z,975.41
2023-01-20T07:54:05.863Z,975.43
2023-01-20T07:55:05.847Z,975.47
2023-01-20T07:56:05.849Z,975.52
2023-01-20T07:57:05.822Z,975.57
2023-01-20T07:58:05.817Z,975.53
2023-01-20T07:59:05.797Z,975.53
2023-01-20T08:00:05.786Z,975.53
2023-01-20T08:01:05.902Z,975.55
2023-01-20T08:02:05.826Z,975.57
2023-01-20T08:03:05.737Z,975.59
2023-01-20T08:04:05.725Z,975.66
2023-01-20T08:05:05.759Z,975.66
2023-01-20T08:06:05.703Z,975.66
2023-01-20T08:07:05.681Z,975.69
2023-01-20T08:08:05.672Z,975.61
2023-01-20T08:09:05.654Z,975.80
2023-01-20T08:10:05.646Z,975.78
2023-01-20T08:11:05.629Z,975.71
2023-01-20T08:12:05.628Z,975.71
2023-01-20T08:13:05.614Z,975.63
2023-01-20T08:14:05.599Z,975.64
2023-01-20T08:15:05.584Z,975.58
2023-01-20T08:16:05.565Z,975.62
2023-01-20T08:17:05.555Z,975.68
2023-01-20T08:18:05.562Z,975.65
2023-01-20T08:19:05.524Z,975.67
2023-01-20T08:20:05.512Z,975.65
2023-01-20T08:21:05.531Z,975.74
2023-01-20T08:22:05.500Z,975.69
2023-01-20T08:23:05.478Z,975.69
2023-01-20T08:24:05.497Z,975.75
2023-01-20T08:25:05.445Z,975.79
2023-01-20T08:26:05.442Z,975.68
2023-01-20T08:27:05.419Z,975.73
2023-01-20T08:28:05.650Z,975.76
2023-01-20T08:29:05.400Z,975.83
2023-01-20T08:30:05.385Z,975.78
2023-01-20T08:31:05.471Z,975.79
2023-01-20T08:32:05.353Z,975.86
2023-01-20T08:33:05.341Z,975.85
2023-01-20T08:34:05.363Z,975.81
2023-01-20T08:35:05.312Z,975.85
2023-01-20T08:36:05.299Z,975.90
2023-01-20T08:37:05.283Z,975.89
2023-01-20T08:38:05.270Z,975.93
2023-01-20T08:39:05.257Z,975.88
2023-01-20T08:40:05.313Z,975.92
2023-01-20T08:41:05.233Z,975.84
2023-01-20T08:42:05.222Z,975.93
2023-01-20T08:43:05.202Z,975.88
2023-01-20T08:44:05.202Z,975.85
2023-01-20T08:45:05.178Z,975.95
2023-01-20T08:46:05.253Z,975.88
2023-01-20T08:47:05.158Z,975.91
2023-01-20T08:48:05.139Z,975.88
2023-01-20T08:49:05.131Z,975.84
2023-01-20T08:50:05.138Z,975.91
2023-01-20T08:51:05.161Z,975.92
2023-01-20T08:52:05.084Z,976.00
2023-01-20T08:53:05.089Z,975.97
2023-01-20T08:54:05.060Z,976.04
2023-01-20T08:55:05.041Z,976.02
2023-01-20T08:56:05.025Z,976.02
2023-01-20T08:57:05.016Z,976.01
2023-01-20T08:58:05.010Z,976.07
2023-01-20T08:59:04.999Z,976.03
2023-01-20T09:00:04.976Z,976.02
2023-01-20T09:01:05.019Z,976.05
2023-01-20T09:02:04.979Z,976.05
2023-01-20T09:03:04.936Z,976.11
2023-01-20T09:04:06.771Z,976.11
2023-01-20T09:05:04.915Z,976.19
2023-01-20T09:06:04.920Z,976.16
2023-01-20T09:07:04.882Z,976.16
2023-01-20T09:08:04.861Z,976.15
2023-01-20T09:09:04.869Z,976.10
2023-01-20T09:10:04.837Z,976.18
2023-01-20T09:11:04.998Z,976.16
2023-01-20T09:12:04.812Z,976.16
2023-01-20T09:13:04.799Z,976.24
2023-01-20T09:14:04.781Z,976.26
2023-01-20T09:15:05.103Z,976.27
2023-01-20T09:16:04.794Z,976.31
2023-01-20T09:17:04.809Z,976.30
2023-01-20T09:18:04.738Z,976.30
2023-01-20T09:19:04.721Z,976.31
2023-01-20T09:20:04.708Z,976.38
2023-01-20T09:21:04.693Z,976.33
2023-01-20T09:22:04.722Z,976.39
2023-01-20T09:23:04.678Z,976.35
2023-01-20T09:24:04.666Z,976.31
2023-01-20T09:25:04.645Z,976.44
2023-01-20T09:26:04.630Z,976.38
2023-01-20T09:27:04.610Z,976.37
2023-01-20T09:28:06.618Z,976.36
2023-01-20T09:29:04.603Z,976.33
2023-01-20T09:30:04.573Z,976.36
2023-01-20T09:31:04.777Z,976.39
2023-01-20T09:32:04.705Z,976.40
2023-01-20T09:33:04.553Z,976.40
2023-01-20T09:34:04.518Z,976.38
2023-01-20T09:35:04.515Z,976.43
2023-01-20T09:36:04.488Z,976.42
2023-01-20T09:37:04.494Z,976.44
2023-01-20T09:38:04.505Z,976.50
2023-01-20T09:39:04.458Z,976.50
2023-01-20T09:40:04.440Z,976.53
2023-01-20T09:41:04.428Z,976.45
2023-01-20T09:42:04.411Z,976.48
2023-01-20T09:43:04.407Z,976.56
2023-01-20T09:44:04.390Z,976.53
2023-01-20T09:45:04.378Z,976.49
2023-01-20T09:46:04.381Z,976.54
2023-01-20T09:47:04.397Z,976.51
2023-01-20T09:48:04.333Z,976.51
2023-01-20T09:49:04.324Z,976.50
2023-01-20T09:50:04.303Z,976.55
2023-01-20T09:51:04.303Z,976.41
2023-01-20T09:52:04.292Z,976.51
2023-01-20T09:53:04.264Z,976.55
2023-01-20T09:54:04.275Z,976.49
2023-01-20T09:55:04.256Z,976.53
2023-01-20T09:56:04.235Z,976.54
2023-01-20T09:57:04.219Z,976.55
2023-01-20T09:58:04.208Z,976.51
2023-01-20T09:59:04.192Z,976.51
2023-01-20T10:00:04.179Z,976.53
2023-01-20T10:01:04.168Z,976.51
2023-01-20T10:02:04.147Z,976.54
2023-01-20T10:03:04.138Z,976.51
2023-01-20T10:04:05.073Z,976.50
2023-01-20T10:05:04.153Z,976.53
2023-01-20T10:06:04.091Z,976.56
2023-01-20T10:07:04.081Z,976.48
2023-01-20T10:08:04.064Z,976.48
2023-01-20T10:09:06.199Z,976.57
2023-01-20T10:10:04.103Z,976.56
2023-01-20T10:11:04.029Z,976.52
2023-01-20T10:12:04.011Z,976.47
2023-01-20T10:13:03.998Z,976.44
2023-01-20T10:14:03.992Z,976.43
2023-01-20T10:15:03.972Z,976.55
2023-01-20T10:16:04.048Z,976.56
2023-01-20T10:17:03.942Z,976.58
2023-01-20T10:18:03.932Z,976.60
2023-01-20T10:19:03.917Z,976.49
2023-01-20T10:20:03.905Z,976.53
2023-01-20T10:21:03.904Z,976.52
2023-01-20T10:22:03.874Z,976.50
2023-01-20T10:23:03.869Z,976.56
2023-01-20T10:24:03.848Z,976.55
2023-01-20T10:25:03.836Z,976.56
2023-01-20T10:26:03.847Z,976.52
2023-01-20T10:27:03.816Z,976.52
2023-01-20T10:28:03.807Z,976.57
2023-01-20T10:29:03.787Z,976.55
2023-01-20T10:30:03.759Z,976.53
2023-01-20T10:31:04.016Z,976.52
2023-01-20T10:32:03.739Z,976.54
2023-01-20T10:33:03.720Z,976.49
2023-01-20T10:34:03.706Z,976.51
2023-01-20T10:35:03.702Z,976.54
2023-01-20T10:36:03.685Z,976.54
2023-01-20T10:37:03.671Z,976.48
2023-01-20T10:38:03.660Z,976.49
2023-01-20T10:39:03.639Z,976.46
2023-01-20T10:40:03.630Z,976.47
2023-01-20T10:41:03.640Z,976.37
2023-01-20T10:42:03.624Z,976.43
2023-01-20T10:43:03.589Z,976.41
2023-01-20T10:44:03.573Z,976.42
2023-01-20T10:45:03.568Z,976.42
2023-01-20T10:46:03.592Z,976.41
2023-01-20T10:47:03.535Z,976.38
2023-01-20T10:48:03.521Z,976.37
2023-01-20T10:49:03.514Z,976.35
2023-01-20T10:50:03.506Z,976.34
2023-01-20T10:51:03.483Z,976.30
2023-01-20T10:52:03.467Z,976.25
2023-01-20T10:53:03.481Z,976.12
2023-01-20T10:54:03.457Z,976.13
2023-01-20T10:55:03.432Z,976.15
2023-01-20T10:56:03.417Z,976.14
2023-01-20T10:57:03.433Z,976.10
2023-01-20T10:58:03.421Z,976.24
2023-01-20T10:59:03.414Z,976.21
2023-01-20T11:00:03.359Z,976.20
2023-01-20T11:01:03.362Z,976.22
2023-01-20T11:02:11.961Z,976.24
2023-01-20T11:03:04.392Z,976.19
2023-01-20T11:04:03.302Z,976.06
2023-01-20T11:05:03.292Z,976.03
2023-01-20T11:06:03.277Z,976.01
2023-01-20T11:07:03.263Z,976.11
2023-01-20T11:08:03.249Z,976.02
2023-01-20T11:09:03.232Z,976.14
2023-01-20T11:10:03.453Z,976.08
2023-01-20T11:11:03.252Z,976.09
2023-01-20T11:12:03.197Z,976.21
2023-01-20T11:13:03.188Z,976.16
2023-01-20T11:14:03.203Z,976.12
2023-01-20T11:15:03.163Z,976.17
2023-01-20T11:16:03.186Z,976.16
2023-01-20T11:17:03.128Z,976.15
2023-01-20T11:18:03.114Z,976.16
2023-01-20T11:19:03.110Z,976.20
2023-01-20T11:20:03.090Z,976.21
2023-01-20T11:21:03.072Z,976.21
2023-01-20T11:22:03.056Z,976.12
2023-01-20T11:23:03.049Z,976.12
2023-01-20T11:24:03.032Z,976.06
2023-01-20T11:25:03.016Z,976.09
2023-01-20T11:26:03.001Z,976.15
2023-01-20T11:27:02.992Z,976.09
2023-01-20T11:28:02.992Z,976.11
2023-01-20T11:29:03.038Z,976.20
2023-01-20T11:30:03.003Z,976.17
2023-01-20T11:31:03.028Z,976.21
2023-01-20T11:32:02.940Z,976.13
2023-01-20T11:33:02.929Z,976.16
2023-01-20T11:34:02.893Z,976.16
2023-01-20T11:35:02.897Z,976.21
2023-01-20T11:36:02.865Z,976.27
2023-01-20T11:37:02.881Z,976.23
2023-01-20T11:38:02.849Z,976.20
2023-01-20T11:39:02.833Z,976.18
2023-01-20T11:40:02.814Z,976.17
2023-01-20T11:41:02.797Z,976.26
2023-01-20T11:42:02.797Z,976.17
2023-01-20T11:43:02.779Z,976.16
2023-01-20T11:44:02.778Z,976.10
2023-01-20T11:45:20.133Z,976.08
2023-01-20T11:46:03.780Z,976.01
2023-01-20T11:47:02.717Z,975.94
2023-01-20T11:48:02.707Z,975.96
2023-01-20T11:49:02.691Z,975.89
2023-01-20T11:50:02.684Z,975.97
2023-01-20T11:51:02.663Z,975.88
2023-01-20T11:52:02.690Z,975.99
2023-01-20T11:53:02.636Z,975.87
2023-01-20T11:54:02.625Z,975.83
2023-01-20T11:55:02.636Z,975.85
2023-01-20T11:56:02.597Z,975.82
2023-01-20T11:57:02.587Z,975.87
2023-01-20T11:58:02.571Z,975.90
2023-01-20T11:59:02.601Z,975.87
2023-01-20T12:00:02.541Z,975.83
2023-01-20T12:01:02.525Z,975.86
2023-01-20T12:02:02.686Z,975.83
2023-01-20T12:03:02.502Z,975.80
2023-01-20T12:04:02.516Z,975.88
2023-01-20T12:05:02.473Z,975.81
2023-01-20T12:06:02.463Z,975.82
2023-01-20T12:07:02.446Z,975.87
2023-01-20T12:08:02.436Z,975.82
2023-01-20T12:09:02.432Z,975.78
2023-01-20T12:10:02.618Z,975.78
2023-01-20T12:11:02.392Z,975.83
2023-01-20T12:12:02.594Z,975.78
2023-01-20T12:13:02.365Z,975.88
2023-01-20T12:14:02.344Z,975.82
2023-01-20T12:15:02.345Z,975.81
2023-01-20T12:16:02.338Z,975.85
2023-01-20T12:17:02.321Z,975.91
2023-01-20T12:18:02.538Z,975.90
2023-01-20T12:19:03.042Z,975.93
2023-01-20T12:20:02.280Z,975.90
2023-01-20T12:21:02.256Z,975.92
2023-01-20T12:22:02.251Z,975.83
2023-01-20T12:23:02.231Z,975.91
2023-01-20T12:24:03.275Z,975.91
2023-01-20T12:25:02.222Z,975.89
2023-01-20T12:26:02.211Z,975.86
2023-01-20T12:27:02.166Z,975.91
2023-01-20T12:28:02.155Z,975.96